Time;durP1;ratioP1;P1;durP2;ratioP2;P2;SDS_P1;SDS_P2;PMS_P1;PMS_P2;Temp;Humidity;BMP_temperature;BMP_pressure;BME280_temperature;BME280_humidity;BME280_pressure;Samples;Min_cycle;Max_cycle;Signal;HPM_P1;HPM_P2
2022/06/16 00:02:16;;;;;;;7.28;4.70;;;20.60;99.90;;;;;;5030419;28;20041;-65
2022/06/16 00:04:46;;;;;;;5.78;4.20;;;20.50;99.90;;;;;;5038730;28;20212;-65
2022/06/16 00:07:15;;;;;;;6.30;3.45;;;20.50;99.90;;;;;;5038713;28;20037;-65
2022/06/16 00:09:43;;;;;;;5.45;3.85;;;20.40;99.90;;;;;;5032365;28;20481;-65
2022/06/16 00:12:10;;;;;;;8.85;4.32;;;20.40;99.90;;;;;;5028649;28;20654;-65
2022/06/16 00:14:38;;;;;;;5.25;3.38;;;20.30;99.90;;;;;;5029492;28;20152;-65
2022/06/16 00:17:06;;;;;;;6.57;3.78;;;20.30;99.90;;;;;;5025251;28;20128;-65
2022/06/16 00:19:33;;;;;;;5.72;3.30;;;20.20;99.90;;;;;;5032206;28;20034;-65
2022/06/16 00:22:00;;;;;;;7.13;3.67;;;20.10;99.90;;;;;;5030976;28;20088;-65
2022/06/16 00:24:28;;;;;;;7.90;3.85;;;20.10;99.90;;;;;;5032096;28;20440;-65
2022/06/16 00:26:56;;;;;;;6.30;3.85;;;20.10;99.90;;;;;;5031523;28;20045;-66
2022/06/16 00:29:24;;;;;;;8.80;3.70;;;20.00;99.90;;;;;;5031769;28;20049;-65
2022/06/16 00:31:52;;;;;;;7.20;3.80;;;20.00;99.90;;;;;;5030019;28;20469;-65
2022/06/16 00:34:20;;;;;;;7.55;3.80;;;19.90;99.90;;;;;;5046637;28;20204;-65
2022/06/16 00:36:48;;;;;;;6.70;4.03;;;19.80;99.90;;;;;;5029265;28;20120;-65
2022/06/16 00:39:15;;;;;;;5.47;3.60;;;19.80;99.90;;;;;;5032098;28;20041;-65
2022/06/16 00:41:42;;;;;;;5.18;3.92;;;19.80;99.90;;;;;;5026808;28;20062;-65
2022/06/16 00:44:30;;;;;;;6.13;4.20;;;19.80;99.90;;;;;;5020512;28;20055;-65
2022/06/16 00:46:58;;;;;;;8.82;3.90;;;19.80;99.90;;;;;;5033203;28;20042;-65
2022/06/16 00:49:27;;;;;;;6.97;3.60;;;19.80;99.90;;;;;;5046375;28;20355;-65
2022/06/16 00:51:59;;;;;;;8.93;4.13;;;19.70;99.90;;;;;;5032114;28;20518;-65
2022/06/16 00:54:32;;;;;;;9.07;3.97;;;19.70;99.90;;;;;;5024627;28;20448;-65
2022/06/16 00:57:07;;;;;;;9.75;4.20;;;19.70;99.90;;;;;;5043776;28;20040;-65
2022/06/16 00:59:36;;;;;;;7.38;4.55;;;19.70;99.90;;;;;;5043452;28;20116;-65
2022/06/16 01:02:05;;;;;;;9.10;4.45;;;19.70;99.90;;;;;;5042495;28;20056;-65
2022/06/16 01:04:53;;;;;;;6.55;4.32;;;19.70;99.90;;;;;;5028777;28;20211;-65
2022/06/16 01:07:27;;;;;;;11.98;5.00;;;19.70;99.90;;;;;;5028100;28;20034;-65
2022/06/16 01:09:57;;;;;;;8.95;4.60;;;19.70;99.90;;;;;;5022121;28;20037;-65
2022/06/16 01:15:47;;;;;;;6.30;4.90;;;19.70;99.90;;;;;;5028214;28;20068;-65
2022/06/16 01:18:34;;;;;;;7.43;4.47;;;19.70;99.90;;;;;;5043376;28;20221;-65
2022/06/16 01:21:08;;;;;;;6.93;4.78;;;19.70;99.90;;;;;;5039919;28;20520;-65
2022/06/16 01:24:12;;;;;;;6.90;4.95;;;19.70;99.90;;;;;;5026674;28;20068;-65
2022/06/16 01:26:49;;;;;;;8.40;5.30;;;19.70;99.90;;;;;;5030021;28;20037;-65
2022/06/16 01:29:29;;;;;;;9.25;4.80;;;19.70;99.90;;;;;;5045884;28;20087;-65
2022/06/16 01:32:19;;;;;;;7.55;5.18;;;19.60;99.90;;;;;;5028364;28;20084;-65
2022/06/16 01:35:08;;;;;;;7.72;5.30;;;19.60;99.90;;;;;;5028467;28;20103;-65
2022/06/16 01:37:47;;;;;;;11.95;5.18;;;19.60;99.90;;;;;;5020789;28;20048;-65
2022/06/16 01:40:33;;;;;;;6.40;4.57;;;19.50;99.90;;;;;;5029322;28;20037;-65
2022/06/16 01:43:06;;;;;;;9.35;5.70;;;19.50;99.90;;;;;;5028715;28;20076;-65
2022/06/16 01:46:06;;;;;;;7.35;5.40;;;19.40;99.90;;;;;;5057803;28;20429;-65
2022/06/16 01:48:36;;;;;;;7.70;5.18;;;19.40;99.90;;;;;;5056980;28;20045;-65
2022/06/16 01:51:14;;;;;;;7.50;4.75;;;19.30;99.90;;;;;;5041229;28;20040;-65
2022/06/16 01:54:07;;;;;;;6.85;5.05;;;19.30;99.90;;;;;;5057008;28;20099;-65
2022/06/16 01:56:57;;;;;;;7.97;5.22;;;19.30;99.90;;;;;;5053574;28;20037;-65
2022/06/16 01:59:30;;;;;;;8.55;5.28;;;19.20;99.90;;;;;;5048668;28;20116;-65
2022/06/16 02:02:02;;;;;;;7.53;5.57;;;19.10;99.90;;;;;;5065249;28;20037;-65
2022/06/16 02:04:36;;;;;;;7.35;5.18;;;19.10;99.90;;;;;;5058427;28;20071;-65
2022/06/16 02:07:09;;;;;;;7.45;4.97;;;19.00;99.90;;;;;;5039776;28;20080;-65
2022/06/16 02:09:42;;;;;;;7.97;5.05;;;19.00;99.90;;;;;;5059582;28;20052;-65
2022/06/16 02:15:31;;;;;;;9.55;5.03;;;18.90;99.90;;;;;;5046778;28;20040;-65
2022/06/16 02:18:06;;;;;;;6.38;4.97;;;18.90;99.90;;;;;;5048244;28;20454;-65
2022/06/16 02:21:00;;;;;;;7.22;4.82;;;18.80;99.90;;;;;;5083406;28;20148;-65
2022/06/16 02:23:29;;;;;;;8.90;4.85;;;18.70;99.90;;;;;;5050238;28;20045;-64
2022/06/16 02:25:57;;;;;;;5.85;4.53;;;18.70;99.90;;;;;;5058120;28;20072;-64
2022/06/16 02:28:26;;;;;;;8.32;5.18;;;18.70;99.90;;;;;;5054376;28;20140;-64
2022/06/16 02:31:23;;;;;;;9.85;5.05;;;18.70;99.90;;;;;;5048840;28;20521;-64
2022/06/16 02:34:08;;;;;;;7.07;5.10;;;18.60;99.90;;;;;;5026004;28;20041;-64
2022/06/16 02:37:17;;;;;;;7.25;5.00;;;18.60;99.90;;;;;;5083053;28;20048;-64
2022/06/16 02:39:55;;;;;;;7.75;5.00;;;18.50;99.90;;;;;;5045904;28;20108;-64
2022/06/16 02:42:39;;;;;;;7.57;4.88;;;18.50;99.90;;;;;;5046031;28;20103;-64
2022/06/16 02:45:19;;;;;;;9.77;5.47;;;18.50;99.90;;;;;;5036523;28;20132;-64
2022/06/16 02:47:58;;;;;;;10.48;5.05;;;18.50;99.90;;;;;;5051359;28;20064;-65
2022/06/16 02:50:37;;;;;;;7.53;5.07;;;18.40;99.90;;;;;;5044980;28;20067;-65
2022/06/16 02:56:54;;;;;;;12.45;5.43;;;18.30;99.90;;;;;;5032300;28;20179;-65
2022/06/16 02:59:47;;;;;;;8.70;5.38;;;18.30;99.90;;;;;;5033270;28;20049;-65
2022/06/16 03:02:23;;;;;;;8.00;5.18;;;18.30;99.90;;;;;;5029630;28;20045;-65
2022/06/16 03:04:57;;;;;;;9.48;5.30;;;18.30;99.90;;;;;;5030502;28;20087;-65
2022/06/16 03:07:25;;;;;;;10.50;4.88;;;18.20;99.90;;;;;;5030354;28;20037;-65
2022/06/16 03:10:50;;;;;;;7.80;5.00;;;18.30;99.90;;;;;;5023933;28;20273;-65
2022/06/16 03:13:04;;;;;;;8.15;5.30;;;18.30;99.90;;;;;;5023394;28;20059;-65
2022/06/16 03:15:31;;;;;;;12.98;5.20;;;18.30;99.90;;;;;;5028037;28;20049;-65
2022/06/16 03:17:58;;;;;;;7.25;4.75;;;18.30;99.90;;;;;;5030315;28;20419;-65
2022/06/16 03:20:26;;;;;;;7.57;5.05;;;18.30;99.90;;;;;;5027014;28;20185;-65
2022/06/16 03:22:53;;;;;;;7.72;5.00;;;18.30;99.90;;;;;;5030744;28;20496;-65
2022/06/16 03:25:20;;;;;;;13.38;5.53;;;18.30;99.90;;;;;;5028757;28;20052;-65
2022/06/16 03:27:48;;;;;;;9.02;5.10;;;18.30;99.90;;;;;;5029755;28;20069;-65
2022/06/16 03:30:15;;;;;;;10.50;5.00;;;18.30;99.90;;;;;;5031641;28;20073;-65
2022/06/16 03:32:43;;;;;;;11.23;5.07;;;18.30;99.90;;;;;;5029656;28;20504;-65
2022/06/16 03:35:11;;;;;;;10.10;5.35;;;18.30;99.90;;;;;;5030163;28;20048;-65
2022/06/16 03:37:40;;;;;;;8.75;4.88;;;18.30;99.90;;;;;;5025849;28;20054;-65
2022/06/16 03:40:13;;;;;;;10.48;5.53;;;18.40;99.90;;;;;;5027924;28;20095;-65
2022/06/16 03:42:40;;;;;;;10.68;5.15;;;18.40;99.90;;;;;;5021211;28;20476;-65
2022/06/16 03:45:11;;;;;;;6.72;4.85;;;18.40;99.90;;;;;;5027963;28;20037;-65
2022/06/16 03:47:38;;;;;;;10.32;5.28;;;18.50;99.90;;;;;;5030414;28;20061;-65
2022/06/16 03:50:07;;;;;;;8.88;5.13;;;18.50;99.90;;;;;;5027879;28;20542;-65
2022/06/16 03:52:38;;;;;;;9.52;4.72;;;18.50;99.90;;;;;;5028431;28;20045;-65
2022/06/16 03:55:07;;;;;;;9.48;5.57;;;18.50;99.90;;;;;;5029671;28;20045;-65
2022/06/16 03:57:37;;;;;;;10.02;5.55;;;18.50;99.90;;;;;;5028331;28;20114;-65
2022/06/16 04:00:09;;;;;;;8.60;5.40;;;18.50;99.90;;;;;;5030047;28;20046;-65
2022/06/16 04:02:46;;;;;;;10.48;5.97;;;18.50;99.90;;;;;;5029438;28;20388;-65
2022/06/16 04:05:21;;;;;;;12.30;5.93;;;18.50;99.90;;;;;;5029480;28;20095;-65
2022/06/16 04:07:56;;;;;;;9.80;5.40;;;18.50;99.90;;;;;;5024122;28;20121;-65
2022/06/16 04:10:26;;;;;;;9.13;5.68;;;18.60;99.90;;;;;;5028311;28;20041;-65
2022/06/16 04:12:54;;;;;;;9.00;5.30;;;18.70;99.90;;;;;;5028299;28;20088;-65
2022/06/16 04:15:31;;;;;;;8.15;5.55;;;18.70;99.90;;;;;;5029527;28;20053;-65
2022/06/16 04:18:01;;;;;;;9.52;5.72;;;18.90;99.90;;;;;;5029886;28;20572;-66
2022/06/16 04:20:35;;;;;;;9.18;5.65;;;19.10;99.90;;;;;;5029828;28;20042;-65
2022/06/16 04:23:12;;;;;;;7.70;5.18;;;19.20;99.90;;;;;;5027366;28;20128;-65
2022/06/16 04:25:42;;;;;;;8.02;5.50;;;19.40;99.90;;;;;;5011461;28;20044;-65
2022/06/16 04:28:16;;;;;;;8.68;5.75;;;19.50;99.90;;;;;;5025607;28;20037;-65
2022/06/16 04:30:47;;;;;;;9.30;5.22;;;19.70;99.90;;;;;;5027922;28;20044;-65
2022/06/16 04:33:19;;;;;;;8.27;6.00;;;19.80;99.90;;;;;;5027795;28;20057;-66
2022/06/16 04:35:47;;;;;;;8.15;5.57;;;19.80;99.90;;;;;;5034129;28;20112;-64
2022/06/16 04:38:20;;;;;;;11.65;6.35;;;19.80;99.90;;;;;;5030905;28;20045;-64
2022/06/16 04:40:48;;;;;;;8.60;5.70;;;19.90;99.90;;;;;;5028112;28;20560;-65
2022/06/16 04:43:17;;;;;;;8.80;5.40;;;19.90;99.90;;;;;;5028858;28;20053;-65
2022/06/16 04:45:55;;;;;;;10.38;5.53;;;19.90;99.90;;;;;;5027390;28;20123;-65
2022/06/16 04:48:27;;;;;;;11.35;6.47;;;19.90;99.90;;;;;;5026563;28;20560;-65
2022/06/16 04:50:55;;;;;;;8.30;5.70;;;19.80;99.90;;;;;;5021839;28;20496;-65
2022/06/16 04:53:26;;;;;;;8.57;5.57;;;19.80;99.90;;;;;;5027549;28;20447;-65
2022/06/16 04:56:07;;;;;;;10.63;5.80;;;19.80;99.90;;;;;;5027219;28;20291;-65
2022/06/16 04:58:45;;;;;;;9.30;6.10;;;19.90;99.90;;;;;;5030345;28;20381;-65
2022/06/16 05:01:31;;;;;;;11.13;6.07;;;20.00;99.90;;;;;;5027802;28;20104;-65
2022/06/16 05:04:25;;;;;;;8.50;6.32;;;19.90;99.90;;;;;;5028122;28;20037;-65
2022/06/16 05:07:05;;;;;;;9.15;5.72;;;19.80;99.90;;;;;;5023133;28;20046;-65
2022/06/16 05:09:37;;;;;;;7.90;5.82;;;19.90;99.90;;;;;;5005257;28;20110;-65
2022/06/16 05:12:23;;;;;;;9.85;5.78;;;20.00;99.90;;;;;;5029438;28;20041;-65
2022/06/16 05:15:09;;;;;;;8.27;6.05;;;20.00;99.90;;;;;;5013753;28;20363;-65
2022/06/16 05:17:57;;;;;;;10.50;6.43;;;20.10;99.90;;;;;;5018947;28;20057;-65
2022/06/16 05:20:41;;;;;;;8.80;5.70;;;20.20;99.90;;;;;;5020017;28;20124;-65
2022/06/16 05:23:18;;;;;;;10.82;6.30;;;20.40;99.90;;;;;;5025287;28;20041;-65
2022/06/16 05:26:09;;;;;;;12.85;7.90;;;20.50;99.90;;;;;;5024579;28;20092;-65
2022/06/16 05:28:57;;;;;;;12.68;6.38;;;20.70;99.90;;;;;;5020693;28;20056;-64
2022/06/16 05:31:31;;;;;;;10.55;6.32;;;20.70;99.90;;;;;;5025280;28;20136;-64
2022/06/16 05:34:21;;;;;;;9.35;6.70;;;20.90;99.90;;;;;;5027860;28;20497;-64
2022/06/16 05:37:07;;;;;;;11.32;7.00;;;21.00;99.90;;;;;;5036443;28;20111;-65
2022/06/16 05:39:54;;;;;;;9.95;7.10;;;21.20;99.90;;;;;;5024505;28;20076;-65
2022/06/16 05:42:54;;;;;;;10.60;7.10;;;21.50;99.90;;;;;;5037385;28;20136;-65
2022/06/16 05:45:48;;;;;;;12.05;6.43;;;21.60;99.90;;;;;;5027807;28;20053;-64
2022/06/16 05:48:28;;;;;;;9.95;7.25;;;21.90;99.90;;;;;;5029534;28;20060;-66
2022/06/16 05:51:04;;;;;;;10.05;6.38;;;21.90;99.90;;;;;;5059253;28;20123;-66
2022/06/16 05:53:36;;;;;;;10.30;6.95;;;21.90;99.90;;;;;;5057165;28;20059;-66
2022/06/16 05:56:11;;;;;;;9.45;6.50;;;22.10;99.90;;;;;;5061705;28;20059;-64
2022/06/16 05:58:40;;;;;;;12.50;6.45;;;22.10;99.90;;;;;;5051302;28;20057;-64
2022/06/16 06:01:08;;;;;;;9.18;6.05;;;22.20;99.90;;;;;;5046331;28;20049;-64
2022/06/16 06:03:38;;;;;;;8.73;7.07;;;22.30;99.90;;;;;;5028469;28;20490;-65
2022/06/16 06:06:07;;;;;;;8.13;6.30;;;22.30;99.90;;;;;;5045733;28;20049;-65
2022/06/16 06:17:20;;;;;;;8.15;6.70;;;22.50;99.90;;;;;;5056822;28;20037;-65
2022/06/16 06:19:52;;;;;;;10.70;7.20;;;22.50;99.90;;;;;;5014937;28;20289;-65
2022/06/16 06:22:24;;;;;;;8.77;7.25;;;22.50;99.90;;;;;;5027056;28;20477;-65
2022/06/16 06:24:58;;;;;;;11.20;6.97;;;22.50;99.90;;;;;;5043371;28;20046;-65
2022/06/16 06:27:39;;;;;;;9.90;7.80;;;22.50;99.90;;;;;;5012808;28;20418;-65
2022/06/16 06:30:16;;;;;;;12.15;7.97;;;22.50;99.90;;;;;;5042256;28;20049;-65
2022/06/16 06:32:45;;;;;;;9.25;7.53;;;22.50;99.90;;;;;;5025429;28;20064;-65
2022/06/16 06:35:13;;;;;;;10.90;7.28;;;22.50;99.90;;;;;;5020429;28;20481;-65
2022/06/16 06:37:41;;;;;;;9.88;6.13;;;22.50;99.90;;;;;;5028584;28;20581;-65
2022/06/16 06:40:24;;;;;;;9.23;7.15;;;22.60;99.90;;;;;;5017028;28;20046;-65
2022/06/16 06:42:51;;;;;;;9.98;6.60;;;22.70;99.90;;;;;;5016792;28;20057;-65
2022/06/16 06:45:19;;;;;;;8.02;6.35;;;22.90;99.90;;;;;;5030068;28;20507;-65
2022/06/16 06:47:47;;;;;;;9.70;5.75;;;22.90;99.90;;;;;;5030728;28;20133;-65
2022/06/16 06:50:22;;;;;;;8.13;6.95;;;23.00;99.90;;;;;;5015389;28;20128;-65
2022/06/16 06:52:51;;;;;;;9.50;6.97;;;23.00;99.90;;;;;;5021236;28;20053;-65
2022/06/16 06:55:19;;;;;;;8.15;6.40;;;23.10;99.90;;;;;;5029438;28;20129;-65
2022/06/16 06:57:49;;;;;;;9.15;6.97;;;23.20;99.90;;;;;;5031208;28;20052;-65
2022/06/16 07:00:17;;;;;;;8.98;6.25;;;23.20;99.90;;;;;;5029300;28;20481;-65
2022/06/16 07:02:44;;;;;;;11.48;6.75;;;23.20;99.90;;;;;;5025076;28;20053;-65
2022/06/16 07:05:12;;;;;;;10.82;6.53;;;23.30;99.90;;;;;;5027291;28;20144;-65
2022/06/16 07:07:46;;;;;;;8.80;6.38;;;23.50;99.90;;;;;;5030667;28;20049;-66
2022/06/16 07:10:15;;;;;;;8.52;6.45;;;23.60;99.90;;;;;;5030904;28;20041;-66
2022/06/16 07:12:42;;;;;;;10.02;6.05;;;23.80;99.90;;;;;;5018594;28;20484;-64
2022/06/16 07:15:10;;;;;;;15.27;7.55;;;24.00;99.90;;;;;;5031209;28;20046;-65
2022/06/16 07:17:38;;;;;;;24.08;16.77;;;24.10;99.90;;;;;;5032295;28;20148;-66
2022/06/16 07:20:06;;;;;;;11.25;7.35;;;24.30;99.90;;;;;;5030771;28;20572;-65
2022/06/16 07:22:33;;;;;;;7.15;6.18;;;24.50;99.90;;;;;;5028170;28;20056;-65
2022/06/16 07:25:01;;;;;;;7.95;6.18;;;24.70;99.90;;;;;;5029140;28;20404;-66
2022/06/16 07:27:30;;;;;;;8.15;5.97;;;24.80;99.90;;;;;;5025132;28;20468;-65
2022/06/16 07:29:57;;;;;;;7.72;6.72;;;24.80;99.90;;;;;;5029716;28;20704;-65
2022/06/16 07:32:25;;;;;;;7.40;6.22;;;25.00;99.90;;;;;;5031167;28;20132;-65
2022/06/16 07:34:52;;;;;;;8.07;6.35;;;25.00;99.90;;;;;;5015472;28;20037;-65
2022/06/16 07:37:19;;;;;;;8.68;6.07;;;25.10;99.90;;;;;;5032556;28;20037;-65
2022/06/16 07:39:47;;;;;;;7.60;6.05;;;25.30;99.90;;;;;;5026693;28;20052;-65
2022/06/16 07:42:15;;;;;;;11.90;6.93;;;25.40;99.90;;;;;;5025866;28;20044;-65
2022/06/16 07:44:43;;;;;;;8.75;6.97;;;25.30;99.90;;;;;;5026548;28;20494;-65
2022/06/16 07:47:10;;;;;;;8.73;6.88;;;25.40;99.90;;;;;;5020643;28;20485;-65
2022/06/16 07:49:37;;;;;;;9.98;6.65;;;25.50;99.90;;;;;;5024241;28;20045;-65
2022/06/16 07:52:05;;;;;;;9.30;7.20;;;25.40;99.90;;;;;;5028548;28;20068;-65
2022/06/16 07:54:32;;;;;;;7.28;6.07;;;25.30;99.90;;;;;;5025045;28;20033;-65
2022/06/16 07:57:19;;;;;;;8.43;5.53;;;25.30;99.90;;;;;;5025980;28;20450;-64
2022/06/16 07:59:56;;;;;;;8.88;6.22;;;25.30;99.90;;;;;;5027477;28;20453;-65
2022/06/16 08:02:24;;;;;;;8.00;5.63;;;25.20;99.90;;;;;;5028757;28;20061;-65
2022/06/16 08:04:52;;;;;;;7.90;6.28;;;25.30;99.90;;;;;;5022365;28;20057;-65
2022/06/16 08:07:19;;;;;;;10.90;6.57;;;25.50;99.90;;;;;;5032341;28;20124;-65
2022/06/16 08:09:48;;;;;;;8.98;6.38;;;25.50;99.90;;;;;;5033927;28;20048;-66
2022/06/16 08:12:16;;;;;;;10.85;7.30;;;25.60;99.90;;;;;;5030308;28;20049;-65
2022/06/16 08:14:46;;;;;;;10.30;6.82;;;25.60;99.90;;;;;;5034226;28;20115;-65
2022/06/16 08:17:29;;;;;;;9.07;7.10;;;25.80;99.90;;;;;;5027544;28;20053;-65
2022/06/16 08:19:57;;;;;;;9.90;7.07;;;25.80;99.90;;;;;;5026546;28;20204;-65
2022/06/16 08:22:25;;;;;;;10.25;5.85;;;25.80;99.90;;;;;;5031042;28;20139;-65
2022/06/16 08:24:53;;;;;;;10.13;5.43;;;26.00;99.90;;;;;;5011079;28;20049;-66
2022/06/16 08:27:24;;;;;;;7.50;5.85;;;26.20;99.90;;;;;;5012323;28;20494;-65
2022/06/16 08:29:51;;;;;;;9.80;5.20;;;26.40;99.90;;;;;;5011404;28;20101;-65
2022/06/16 08:32:20;;;;;;;9.60;5.80;;;26.40;99.90;;;;;;5011890;28;20045;-67
2022/06/16 08:34:49;;;;;;;9.90;6.03;;;26.40;99.90;;;;;;5025627;28;20129;-64
2022/06/16 08:37:17;;;;;;;11.73;5.97;;;26.10;99.90;;;;;;5033747;28;20033;-65
2022/06/16 08:39:44;;;;;;;11.32;5.65;;;26.40;99.90;;;;;;5034297;28;20044;-65
2022/06/16 08:42:40;;;;;;;8.88;5.40;;;26.60;99.90;;;;;;5021728;28;20052;-65
2022/06/16 08:45:32;;;;;;;8.68;4.80;;;26.70;99.90;;;;;;5024781;28;20144;-65
2022/06/16 08:48:02;;;;;;;6.72;4.07;;;26.80;99.90;;;;;;5031427;28;20041;-65
2022/06/16 08:50:41;;;;;;;7.70;4.57;;;27.00;99.90;;;;;;5027087;28;20061;-67
2022/06/16 08:53:36;;;;;;;7.10;5.25;;;27.00;99.00;;;;;;5022613;28;20064;-66
2022/06/16 08:56:08;;;;;;;7.82;5.15;;;26.80;99.40;;;;;;5029426;28;20391;-65
2022/06/16 08:59:00;;;;;;;9.05;5.80;;;26.40;99.70;;;;;;5023758;28;20053;-65
2022/06/16 09:01:35;;;;;;;;;;;26.50;99.90;;;;;;5018362;28;20417;-65
2022/06/16 09:04:19;;;;;;;6.85;5.20;;;26.40;99.90;;;;;;5028606;28;20379;-65
2022/06/16 09:07:05;;;;;;;7.20;5.07;;;26.70;99.90;;;;;;5029658;28;20029;-67
2022/06/16 09:10:15;;;;;;;8.25;5.35;;;26.60;99.40;;;;;;5022176;28;20076;-64
2022/06/16 09:12:45;;;;;;;8.07;5.15;;;26.80;99.70;;;;;;5015435;28;20065;-65
2022/06/16 09:15:20;;;;;;;9.35;5.07;;;26.90;99.90;;;;;;5032065;28;20398;-64
2022/06/16 09:17:59;;;;;;;7.05;4.57;;;27.10;99.50;;;;;;5016263;28;20159;-65
2022/06/16 09:20:36;;;;;;;8.00;5.13;;;27.30;98.50;;;;;;5027621;28;20120;-67
2022/06/16 09:23:12;;;;;;;6.47;5.00;;;27.30;99.30;;;;;;5029053;28;20037;-66
2022/06/16 09:25:50;;;;;;;8.40;5.15;;;27.60;99.30;;;;;;5021997;28;20370;-65
2022/06/16 09:28:31;;;;;;;7.57;4.50;;;28.00;98.70;;;;;;5020693;28;20736;-67
2022/06/16 09:31:03;;;;;;;8.75;5.13;;;28.30;97.50;;;;;;5027342;28;20123;-64
2022/06/16 09:33:35;;;;;;;6.60;5.20;;;28.20;97.40;;;;;;5026210;28;20045;-67
2022/06/16 09:36:13;;;;;;;9.43;5.22;;;28.30;97.70;;;;;;5022703;28;20053;-67
2022/06/16 09:39:06;;;;;;;13.40;5.65;;;28.20;97.40;;;;;;5024551;28;20068;-65
2022/06/16 09:45:13;;;;;;;8.27;4.63;;;28.70;96.50;;;;;;5019698;28;20077;-65
2022/06/16 09:48:10;;;;;;;7.65;5.30;;;29.10;96.30;;;;;;5043252;28;20107;-66
2022/06/16 09:51:28;;;;;;;7.55;5.30;;;29.50;95.80;;;;;;5021090;28;20061;-66
2022/06/16 09:54:16;;;;;;;6.97;4.45;;;29.70;95.10;;;;;;5034159;28;20057;-66
2022/06/16 09:56:49;;;;;;;8.60;4.20;;;29.90;93.20;;;;;;5029234;28;20049;-66
2022/06/16 09:59:49;;;;;;;10.07;4.28;;;29.80;91.60;;;;;;5023692;28;20107;-65
2022/06/16 10:02:26;;;;;;;6.22;4.03;;;29.70;91.50;;;;;;5026927;28;20523;-67
2022/06/16 10:04:54;;;;;;;6.90;4.20;;;29.40;91.40;;;;;;5028328;28;20049;-66
2022/06/16 10:07:24;;;;;;;8.40;4.43;;;29.20;91.90;;;;;;5031962;28;20029;-67
2022/06/16 10:09:54;;;;;;;7.80;4.53;;;29.00;91.90;;;;;;5024907;28;20041;-66
2022/06/16 10:12:41;;;;;;;6.47;4.30;;;29.10;92.20;;;;;;5032239;28;20037;-67
2022/06/16 10:15:25;;;;;;;8.05;4.57;;;29.30;92.10;;;;;;5029727;28;20141;-66
2022/06/16 10:17:52;;;;;;;10.75;4.95;;;29.10;92.00;;;;;;5028537;28;20356;-67
2022/06/16 10:20:21;;;;;;;9.60;4.72;;;29.30;91.50;;;;;;5031566;28;20041;-66
2022/06/16 10:23:11;;;;;;;7.28;4.53;;;29.70;91.50;;;;;;5032312;28;20046;-66
2022/06/16 10:25:57;;;;;;;8.77;4.97;;;29.70;92.10;;;;;;5032706;28;20049;-66
2022/06/16 10:28:31;;;;;;;6.15;4.18;;;29.70;92.20;;;;;;5033141;28;20123;-67
2022/06/16 10:31:01;;;;;;;6.25;3.80;;;29.60;91.50;;;;;;5031519;28;20136;-66
2022/06/16 10:33:35;;;;;;;6.95;3.75;;;29.50;90.00;;;;;;5030383;28;20111;-66
2022/06/16 10:36:21;;;;;;;6.72;4.07;;;29.60;90.00;;;;;;5031317;28;20043;-66
2022/06/16 10:39:15;;;;;;;7.20;4.03;;;29.20;90.00;;;;;;5024392;28;20052;-66
2022/06/16 10:41:59;;;;;;;5.65;3.55;;;29.60;89.90;;;;;;5029288;28;20107;-66
2022/06/16 10:44:29;;;;;;;5.07;3.20;;;29.80;89.70;;;;;;5026098;28;20054;-67
2022/06/16 10:47:00;;;;;;;5.88;3.70;;;29.80;89.20;;;;;;5029954;28;20080;-67
2022/06/16 10:49:33;;;;;;;5.85;3.75;;;29.60;88.70;;;;;;5030504;28;20514;-67
2022/06/16 10:52:14;;;;;;;9.43;3.63;;;29.60;90.00;;;;;;5031478;28;20049;-65
2022/06/16 10:55:19;;;;;;;10.70;3.85;;;29.90;90.10;;;;;;5032075;28;20041;-65
2022/06/16 10:58:04;;;;;;;5.20;3.70;;;30.20;90.30;;;;;;5019212;28;20054;-66
2022/06/16 11:00:35;;;;;;;6.95;4.00;;;30.20;88.80;;;;;;5027557;28;20144;-66
2022/06/16 11:03:08;;;;;;;6.40;3.90;;;30.20;89.30;;;;;;5029163;28;20445;-65
2022/06/16 11:05:53;;;;;;;5.80;3.85;;;30.30;89.50;;;;;;5029485;28;20662;-65
2022/06/16 11:08:23;;;;;;;6.32;3.75;;;30.00;88.00;;;;;;5020263;28;20034;-64
2022/06/16 11:11:11;;;;;;;8.65;3.40;;;30.50;88.50;;;;;;5019258;28;20034;-65
2022/06/16 11:13:52;;;;;;;4.68;3.47;;;30.80;86.50;;;;;;5026084;28;20034;-66
2022/06/16 11:16:31;;;;;;;7.30;3.67;;;31.20;84.40;;;;;;5029032;28;20107;-66
2022/06/16 11:19:06;;;;;;;5.13;3.40;;;31.20;84.50;;;;;;5026742;28;20158;-66
2022/06/16 11:21:34;;;;;;;10.75;3.67;;;31.30;83.70;;;;;;5013078;28;20393;-66
2022/06/16 11:24:06;;;;;;;7.45;3.60;;;31.10;83.30;;;;;;5024431;28;20445;-66
2022/06/16 11:26:36;;;;;;;4.95;3.50;;;31.50;83.50;;;;;;5026542;28;20795;-65
2022/06/16 11:29:13;;;;;;;7.15;3.97;;;31.80;82.00;;;;;;5017268;28;20057;-66
2022/06/16 11:31:44;;;;;;;6.82;3.50;;;32.40;80.70;;;;;;5022206;28;20141;-65
2022/06/16 11:34:25;;;;;;;12.38;3.50;;;32.60;78.50;;;;;;5024680;28;20389;-66
2022/06/16 11:37:09;;;;;;;6.90;3.58;;;32.80;77.50;;;;;;5030865;28;20072;-66
2022/06/16 11:40:07;;;;;;;4.40;2.90;;;33.10;77.20;;;;;;5027667;28;20049;-67
2022/06/16 11:43:01;;;;;;;6.43;3.30;;;33.40;73.60;;;;;;5027830;28;20067;-65
2022/06/16 11:45:47;;;;;;;7.05;3.10;;;33.40;73.40;;;;;;5018604;28;20057;-66
2022/06/16 11:48:40;;;;;;;5.93;3.20;;;33.60;73.70;;;;;;5030255;28;20045;-65
2022/06/16 11:51:31;;;;;;;7.55;3.30;;;33.50;75.30;;;;;;5020075;28;20062;-67
2022/06/16 11:54:07;;;;;;;8.23;3.67;;;33.50;74.60;;;;;;5023352;28;20065;-65
2022/06/16 11:57:17;;;;;;;7.07;3.55;;;33.40;74.40;;;;;;5025224;28;20041;-65
2022/06/16 12:00:02;;;;;;;6.40;3.35;;;33.10;74.30;;;;;;5023545;28;20053;-66
2022/06/16 12:02:46;;;;;;;4.60;3.03;;;33.20;74.20;;;;;;5016594;28;20575;-65
2022/06/16 12:05:22;;;;;;;4.97;3.45;;;33.90;74.40;;;;;;5028655;28;20559;-66
2022/06/16 12:08:25;;;;;;;7.80;3.38;;;34.40;72.00;;;;;;5013485;28;20038;-66
2022/06/16 12:10:59;;;;;;;12.00;3.50;;;34.20;72.20;;;;;;5022900;28;20034;-66
2022/06/16 12:13:46;;;;;;;6.43;3.50;;;33.90;73.20;;;;;;5033560;28;20197;-66
2022/06/16 12:16:39;;;;;;;5.72;4.20;;;33.10;73.80;;;;;;5010869;28;20041;-65
2022/06/16 12:19:31;;;;;;;6.82;4.40;;;32.20;76.30;;;;;;5014030;28;20123;-64
2022/06/16 12:22:42;;;;;;;6.88;3.83;;;31.60;77.50;;;;;;5029827;28;20045;-64
2022/06/16 12:25:26;;;;;;;6.63;4.13;;;32.10;77.10;;;;;;5021114;28;20498;-64
2022/06/16 12:28:01;;;;;;;7.35;3.97;;;31.80;77.60;;;;;;5030760;28;20400;-64
2022/06/16 12:30:42;;;;;;;7.72;3.78;;;31.50;78.50;;;;;;5025661;28;20042;-64
2022/06/16 12:33:24;;;;;;;6.20;4.18;;;31.20;78.70;;;;;;5025836;28;20361;-64
2022/06/16 12:36:04;;;;;;;6.90;4.20;;;31.00;77.80;;;;;;5033053;28;20555;-65
2022/06/16 12:38:36;;;;;;;5.80;3.80;;;31.80;76.80;;;;;;5029877;28;20037;-65
2022/06/16 12:41:15;;;;;;;6.15;3.58;;;32.60;76.10;;;;;;5027285;28;20042;-64
2022/06/16 12:43:46;;;;;;;8.00;3.80;;;33.50;74.90;;;;;;5025256;28;20415;-65
2022/06/16 12:46:28;;;;;;;7.03;3.97;;;32.90;74.00;;;;;;5014756;28;20485;-64
2022/06/16 12:49:18;;;;;;;11.68;3.70;;;32.60;74.90;;;;;;5027523;28;20072;-66
2022/06/16 12:51:53;;;;;;;8.65;3.45;;;32.40;74.60;;;;;;5033418;28;20045;-66
2022/06/16 12:54:40;;;;;;;7.22;3.30;;;32.00;74.10;;;;;;5031597;28;20045;-68
2022/06/16 12:57:21;;;;;;;6.80;3.28;;;31.40;74.90;;;;;;5028426;28;20535;-64
2022/06/16 13:00:10;;;;;;;4.65;3.20;;;30.70;75.80;;;;;;5031352;28;20056;-65
2022/06/16 13:02:44;;;;;;;8.77;3.35;;;31.00;75.40;;;;;;5016967;28;20091;-66
2022/06/16 13:05:13;;;;;;;4.55;3.20;;;31.40;75.30;;;;;;5028142;28;20052;-66
2022/06/16 13:07:46;;;;;;;8.07;3.42;;;32.10;73.90;;;;;;5025966;28;20049;-65
2022/06/16 13:10:14;;;;;;;6.70;3.22;;;32.70;73.60;;;;;;5026980;28;20071;-65
2022/06/16 13:13:04;;;;;;;4.80;3.00;;;33.50;72.70;;;;;;5017119;28;20397;-64
2022/06/16 13:15:38;;;;;;;6.80;3.08;;;33.80;71.40;;;;;;5025724;28;20136;-64
2022/06/16 13:18:16;;;;;;;8.63;3.17;;;34.10;70.70;;;;;;5021161;28;20460;-66
2022/06/16 13:20:52;;;;;;;7.25;3.15;;;32.60;71.70;;;;;;5030726;28;20565;-65
2022/06/16 13:23:36;;;;;;;8.30;3.35;;;32.20;72.80;;;;;;5033241;28;20048;-65
2022/06/16 13:26:20;;;;;;;6.00;3.45;;;31.70;73.20;;;;;;5018043;28;20044;-67
2022/06/16 13:29:02;;;;;;;7.55;3.35;;;31.80;72.10;;;;;;5021441;28;20049;-66
2022/06/16 13:31:54;;;;;;;5.70;2.90;;;32.00;71.90;;;;;;5028582;28;20117;-67
2022/06/16 13:34:40;;;;;;;6.03;2.90;;;32.60;70.20;;;;;;5028622;28;20111;-66
2022/06/16 13:37:07;;;;;;;8.90;2.95;;;33.60;69.30;;;;;;5035655;28;20049;-66
2022/06/16 13:40:07;;;;;;;9.20;3.20;;;34.30;69.10;;;;;;5027631;28;20069;-66
2022/06/16 13:42:43;;;;;;;6.20;3.10;;;34.60;69.40;;;;;;5018218;28;20560;-67
2022/06/16 13:45:11;;;;;;;8.02;3.63;;;34.20;69.00;;;;;;5025832;28;20137;-67
2022/06/16 13:47:46;;;;;;;5.90;3.17;;;34.70;68.10;;;;;;5027768;28;20500;-65
2022/06/16 13:50:21;;;;;;;5.13;2.83;;;34.10;68.00;;;;;;5027263;28;20416;-67
2022/06/16 13:53:03;;;;;;;5.13;2.58;;;35.10;66.60;;;;;;5028183;28;20796;-67
2022/06/16 13:55:41;;;;;;;5.72;2.50;;;35.40;65.40;;;;;;5027230;28;20100;-66
2022/06/16 13:58:17;;;;;;;6.43;2.72;;;35.50;65.50;;;;;;5027273;28;20076;-66